sensor_id;sensor_type;location;lat;lon;timestamp;temperature;humidity
1453;DHT22;720;47.738;7.998;2023-12-20T00:02:20;5.30;99.90
1453;DHT22;720;47.738;7.998;2023-12-20T00:04:45;5.30;99.90
1453;DHT22;720;47.738;7.998;2023-12-20T00:07:11;5.40;99.90
1453;DHT22;720;47.738;7.998;2023-12-20T00:09:36;5.40;99.90
1453;DHT22;720;47.738;7.998;2023-12-20T00:12:02;5.40;99.90
1453;DHT22;720;47.738;7.998;2023-12-20T00:14:28;5.40;99.90
1453;DHT22;720;47.738;7.998;2023-12-20T00:16:54;5.30;99.90
1453;DHT22;720;47.738;7.998;2023-12-20T00:19:19;5.30;99.90
1453;DHT22;720;47.738;7.998;2023-12-20T00:21:45;5.40;99.90
1453;DHT22;720;47.738;7.998;2023-12-20T00:24:11;5.40;99.90
1453;DHT22;720;47.738;7.998;2023-12-20T00:26:36;5.50;99.90
1453;DHT22;720;47.738;7.998;2023-12-20T00:29:02;5.60;99.90
1453;DHT22;720;47.738;7.998;2023-12-20T00:31:28;5.70;99.90
1453;DHT22;720;47.738;7.998;2023-12-20T00:33:53;5.80;99.90
1453;DHT22;720;47.738;7.998;2023-12-20T00:36:20;5.70;99.90
1453;DHT22;720;47.738;7.998;2023-12-20T00:38:45;5.70;99.90
1453;DHT22;720;47.738;7.998;2023-12-20T00:41:11;5.70;99.90
1453;DHT22;720;47.738;7.998;2023-12-20T00:43:37;5.70;99.90
1453;DHT22;720;47.738;7.998;2023-12-20T00:46:02;5.80;99.90
1453;DHT22;720;47.738;7.998;2023-12-20T00:48:28;5.70;99.90
1453;DHT22;720;47.738;7.998;2023-12-20T00:50:55;5.70;99.90
1453;DHT22;720;47.738;7.998;2023-12-20T00:53:21;5.60;99.90
1453;DHT22;720;47.738;7.998;2023-12-20T00:55:47;5.60;99.90
1453;DHT22;720;47.738;7.998;2023-12-20T00:58:12;5.60;99.90
1453;DHT22;720;47.738;7.998;2023-12-20T01:00:40;5.60;99.90
1453;DHT22;720;47.738;7.998;2023-12-20T01:03:07;5.60;99.90
1453;DHT22;720;47.738;7.998;2023-12-20T01:05:33;5.70;99.90
1453;DHT22;720;47.738;7.998;2023-12-20T01:07:58;5.80;99.90
1453;DHT22;720;47.738;7.998;2023-12-20T01:10:24;5.80;99.90
1453;DHT22;720;47.738;7.998;2023-12-20T01:12:53;5.70;99.90
1453;DHT22;720;47.738;7.998;2023-12-20T01:15:19;5.70;99.90
1453;DHT22;720;47.738;7.998;2023-12-20T01:17:44;5.80;99.90
1453;DHT22;720;47.738;7.998;2023-12-20T01:20:10;5.70;99.90
1453;DHT22;720;47.738;7.998;2023-12-20T01:22:36;5.70;99.90
1453;DHT22;720;47.738;7.998;2023-12-20T01:25:02;5.80;99.90
1453;DHT22;720;47.738;7.998;2023-12-20T01:27:28;5.80;99.90
1453;DHT22;720;47.738;7.998;2023-12-20T01:29:54;5.90;99.90
1453;DHT22;720;47.738;7.998;2023-12-20T01:32:19;5.90;99.90
1453;DHT22;720;47.738;7.998;2023-12-20T01:34:45;5.90;99.90
1453;DHT22;720;47.738;7.998;2023-12-20T01:37:11;5.90;99.90
1453;DHT22;720;47.738;7.998;2023-12-20T01:39:36;5.90;99.90
1453;DHT22;720;47.738;7.998;2023-12-20T01:42:02;5.80;99.90
1453;DHT22;720;47.738;7.998;2023-12-20T01:44:28;5.80;99.90
1453;DHT22;720;47.738;7.998;2023-12-20T01:46:54;5.90;99.90
1453;DHT22;720;47.738;7.998;2023-12-20T01:49:20;5.90;99.90
1453;DHT22;720;47.738;7.998;2023-12-20T01:51:46;5.90;99.90
1453;DHT22;720;47.738;7.998;2023-12-20T01:54:12;5.90;99.90
1453;DHT22;720;47.738;7.998;2023-12-20T01:56:39;5.90;99.90
1453;DHT22;720;47.738;7.998;2023-12-20T01:59:05;5.90;99.90
1453;DHT22;720;47.738;7.998;2023-12-20T02:01:32;5.90;99.90
1453;DHT22;720;47.738;7.998;2023-12-20T02:03:58;6.00;99.90
1453;DHT22;720;47.738;7.998;2023-12-20T02:06:25;5.90;99.90
1453;DHT22;720;47.738;7.998;2023-12-20T02:08:54;5.80;99.90
1453;DHT22;720;47.738;7.998;2023-12-20T02:11:20;5.80;99.90
1453;DHT22;720;47.738;7.998;2023-12-20T02:13:46;5.90;99.90
1453;DHT22;720;47.738;7.998;2023-12-20T02:16:12;5.90;99.90
1453;DHT22;720;47.738;7.998;2023-12-20T02:18:38;5.80;99.90
1453;DHT22;720;47.738;7.998;2023-12-20T02:21:05;5.80;99.90
1453;DHT22;720;47.738;7.998;2023-12-20T02:23:31;5.70;99.90
1453;DHT22;720;47.738;7.998;2023-12-20T02:25:57;5.60;99.90
1453;DHT22;720;47.738;7.998;2023-12-20T02:28:22;5.40;99.90
1453;DHT22;720;47.738;7.998;2023-12-20T02:30:48;5.40;99.90
1453;DHT22;720;47.738;7.998;2023-12-20T02:33:15;5.30;99.90
1453;DHT22;720;47.738;7.998;2023-12-20T02:35:41;5.30;99.90
1453;DHT22;720;47.738;7.998;2023-12-20T02:38:06;5.30;99.90
1453;DHT22;720;47.738;7.998;2023-12-20T02:40:32;5.30;99.90
1453;DHT22;720;47.738;7.998;2023-12-20T02:42:58;5.30;99.90
1453;DHT22;720;47.738;7.998;2023-12-20T02:45:23;5.40;99.90
1453;DHT22;720;47.738;7.998;2023-12-20T02:47:49;5.40;99.90
1453;DHT22;720;47.738;7.998;2023-12-20T02:50:15;5.40;99.90
1453;DHT22;720;47.738;7.998;2023-12-20T02:52:40;5.40;99.90
1453;DHT22;720;47.738;7.998;2023-12-20T02:55:06;5.40;99.90
1453;DHT22;720;47.738;7.998;2023-12-20T02:57:32;5.40;99.90
1453;DHT22;720;47.738;7.998;2023-12-20T02:59:58;5.50;99.90
1453;DHT22;720;47.738;7.998;2023-12-20T03:02:24;5.50;99.90
1453;DHT22;720;47.738;7.998;2023-12-20T03:04:50;5.50;99.90
1453;DHT22;720;47.738;7.998;2023-12-20T03:07:15;5.50;99.90
1453;DHT22;720;47.738;7.998;2023-12-20T03:09:41;5.40;99.90
1453;DHT22;720;47.738;7.998;2023-12-20T03:12:06;5.40;99.90
1453;DHT22;720;47.738;7.998;2023-12-20T03:14:32;5.40;99.90
1453;DHT22;720;47.738;7.998;2023-12-20T03:16:58;5.30;99.90
1453;DHT22;720;47.738;7.998;2023-12-20T03:19:23;5.30;99.90
1453;DHT22;720;47.738;7.998;2023-12-20T03:21:50;5.30;99.90
1453;DHT22;720;47.738;7.998;2023-12-20T03:24:15;5.40;99.90
1453;DHT22;720;47.738;7.998;2023-12-20T03:26:41;5.40;99.90
1453;DHT22;720;47.738;7.998;2023-12-20T03:29:06;5.30;99.90
1453;DHT22;720;47.738;7.998;2023-12-20T03:31:32;5.30;99.90
1453;DHT22;720;47.738;7.998;2023-12-20T03:33:58;5.20;99.90
1453;DHT22;720;47.738;7.998;2023-12-20T03:36:23;5.20;99.90
1453;DHT22;720;47.738;7.998;2023-12-20T03:38:49;5.10;99.90
1453;DHT22;720;47.738;7.998;2023-12-20T03:41:14;5.20;99.90
1453;DHT22;720;47.738;7.998;2023-12-20T03:43:40;5.20;99.90
1453;DHT22;720;47.738;7.998;2023-12-20T03:46:08;5.20;99.90
1453;DHT22;720;47.738;7.998;2023-12-20T03:48:33;5.20;99.90
1453;DHT22;720;47.738;7.998;2023-12-20T03:50:59;5.30;99.90
1453;DHT22;720;47.738;7.998;2023-12-20T03:53:25;5.40;99.90
1453;DHT22;720;47.738;7.998;2023-12-20T03:55:50;5.40;99.90
1453;DHT22;720;47.738;7.998;2023-12-20T03:58:16;5.30;99.90
1453;DHT22;720;47.738;7.998;2023-12-20T04:00:41;5.30;99.90
1453;DHT22;720;47.738;7.998;2023-12-20T04:03:07;5.30;99.90
1453;DHT22;720;47.738;7.998;2023-12-20T04:05:33;5.30;99.90
1453;DHT22;720;47.738;7.998;2023-12-20T04:08:01;5.30;99.90
1453;DHT22;720;47.738;7.998;2023-12-20T04:10:27;5.30;99.90
1453;DHT22;720;47.738;7.998;2023-12-20T04:12:53;5.30;99.90
1453;DHT22;720;47.738;7.998;2023-12-20T04:15:18;5.40;99.90
1453;DHT22;720;47.738;7.998;2023-12-20T04:17:44;5.40;99.90
1453;DHT22;720;47.738;7.998;2023-12-20T04:20:10;5.40;99.90
1453;DHT22;720;47.738;7.998;2023-12-20T04:22:35;5.40;99.90
1453;DHT22;720;47.738;7.998;2023-12-20T04:25:01;5.40;99.90
1453;DHT22;720;47.738;7.998;2023-12-20T04:27:27;5.40;99.90
1453;DHT22;720;47.738;7.998;2023-12-20T04:29:53;5.30;99.90
1453;DHT22;720;47.738;7.998;2023-12-20T04:32:18;5.20;99.90
1453;DHT22;720;47.738;7.998;2023-12-20T04:34:44;5.10;99.90
1453;DHT22;720;47.738;7.998;2023-12-20T04:37:09;5.10;99.90
1453;DHT22;720;47.738;7.998;2023-12-20T04:39:35;5.10;99.90
1453;DHT22;720;47.738;7.998;2023-12-20T04:42:01;5.10;99.90
1453;DHT22;720;47.738;7.998;2023-12-20T04:44:26;5.00;99.90
1453;DHT22;720;47.738;7.998;2023-12-20T04:46:52;5.00;99.90
1453;DHT22;720;47.738;7.998;2023-12-20T04:49:18;5.00;99.90
1453;DHT22;720;47.738;7.998;2023-12-20T04:51:43;4.90;99.90
1453;DHT22;720;47.738;7.998;2023-12-20T04:54:09;5.00;99.90
1453;DHT22;720;47.738;7.998;2023-12-20T04:56:36;5.10;99.90
1453;DHT22;720;47.738;7.998;2023-12-20T04:59:01;5.20;99.90
1453;DHT22;720;47.738;7.998;2023-12-20T05:01:27;5.10;99.90
1453;DHT22;720;47.738;7.998;2023-12-20T05:03:53;5.10;99.90
1453;DHT22;720;47.738;7.998;2023-12-20T05:06:18;5.10;99.90
1453;DHT22;720;47.738;7.998;2023-12-20T05:08:44;5.10;99.90
1453;DHT22;720;47.738;7.998;2023-12-20T05:11:10;5.10;99.90
1453;DHT22;720;47.738;7.998;2023-12-20T05:13:35;5.20;99.90
1453;DHT22;720;47.738;7.998;2023-12-20T05:16:01;5.20;99.90
1453;DHT22;720;47.738;7.998;2023-12-20T05:18:27;5.40;99.90
1453;DHT22;720;47.738;7.998;2023-12-20T05:20:52;5.50;99.90
1453;DHT22;720;47.738;7.998;2023-12-20T05:23:18;5.40;99.90
1453;DHT22;720;47.738;7.998;2023-12-20T05:25:44;5.50;99.90
1453;DHT22;720;47.738;7.998;2023-12-20T05:28:09;5.60;99.90
1453;DHT22;720;47.738;7.998;2023-12-20T05:30:35;5.50;99.90
1453;DHT22;720;47.738;7.998;2023-12-20T05:33:01;5.60;99.90
1453;DHT22;720;47.738;7.998;2023-12-20T05:35:26;5.70;99.90
1453;DHT22;720;47.738;7.998;2023-12-20T05:37:52;5.80;99.90
1453;DHT22;720;47.738;7.998;2023-12-20T05:40:17;5.80;99.90
1453;DHT22;720;47.738;7.998;2023-12-20T05:42:43;5.80;99.90
1453;DHT22;720;47.738;7.998;2023-12-20T05:45:09;5.80;99.90
1453;DHT22;720;47.738;7.998;2023-12-20T05:47:35;5.80;99.90
1453;DHT22;720;47.738;7.998;2023-12-20T05:50:00;5.80;99.90
1453;DHT22;720;47.738;7.998;2023-12-20T05:52:26;5.70;99.90
1453;DHT22;720;47.738;7.998;2023-12-20T05:54:52;5.70;99.90
1453;DHT22;720;47.738;7.998;2023-12-20T05:57:17;5.70;99.90
1453;DHT22;720;47.738;7.998;2023-12-20T05:59:43;5.70;99.90
1453;DHT22;720;47.738;7.998;2023-12-20T06:02:08;5.70;99.90
1453;DHT22;720;47.738;7.998;2023-12-20T06:04:34;5.70;99.90
1453;DHT22;720;47.738;7.998;2023-12-20T06:07:00;5.60;99.90
1453;DHT22;720;47.738;7.998;2023-12-20T06:09:27;5.50;99.90
1453;DHT22;720;47.738;7.998;2023-12-20T06:11:52;5.50;99.90
1453;DHT22;720;47.738;7.998;2023-12-20T06:14:18;5.60;99.90
1453;DHT22;720;47.738;7.998;2023-12-20T06:16:45;5.70;99.90
1453;DHT22;720;47.738;7.998;2023-12-20T06:19:11;5.70;99.90
1453;DHT22;720;47.738;7.998;2023-12-20T06:21:36;5.70;99.90
1453;DHT22;720;47.738;7.998;2023-12-20T06:24:02;5.70;99.90
1453;DHT22;720;47.738;7.998;2023-12-20T06:26:28;5.70;99.90
1453;DHT22;720;47.738;7.998;2023-12-20T06:28:53;5.70;99.90
1453;DHT22;720;47.738;7.998;2023-12-20T06:31:19;5.60;99.90
1453;DHT22;720;47.738;7.998;2023-12-20T06:33:44;5.70;99.90
1453;DHT22;720;47.738;7.998;2023-12-20T06:36:13;5.60;99.90
1453;DHT22;720;47.738;7.998;2023-12-20T06:38:39;5.60;99.90
1453;DHT22;720;47.738;7.998;2023-12-20T06:41:05;5.60;99.90
1453;DHT22;720;47.738;7.998;2023-12-20T06:43:31;5.60;99.90
1453;DHT22;720;47.738;7.998;2023-12-20T06:45:58;5.70;99.90
1453;DHT22;720;47.738;7.998;2023-12-20T06:48:23;5.70;99.90
1453;DHT22;720;47.738;7.998;2023-12-20T06:50:49;5.70;99.90
1453;DHT22;720;47.738;7.998;2023-12-20T06:53:15;5.80;99.90
1453;DHT22;720;47.738;7.998;2023-12-20T06:55:40;5.80;99.90
1453;DHT22;720;47.738;7.998;2023-12-20T06:58:06;5.80;99.90
1453;DHT22;720;47.738;7.998;2023-12-20T07:00:32;5.90;99.90
1453;DHT22;720;47.738;7.998;2023-12-20T07:02:58;6.00;99.90
1453;DHT22;720;47.738;7.998;2023-12-20T07:05:24;5.90;99.90
1453;DHT22;720;47.738;7.998;2023-12-20T07:07:50;5.90;99.90
1453;DHT22;720;47.738;7.998;2023-12-20T07:10:16;5.80;99.90
1453;DHT22;720;47.738;7.998;2023-12-20T07:12:41;5.80;99.90
1453;DHT22;720;47.738;7.998;2023-12-20T07:15:07;5.80;99.90
1453;DHT22;720;47.738;7.998;2023-12-20T07:17:33;5.80;99.90
1453;DHT22;720;47.738;7.998;2023-12-20T07:20:00;5.90;99.90
1453;DHT22;720;47.738;7.998;2023-12-20T07:22:32;5.90;99.90
1453;DHT22;720;47.738;7.998;2023-12-20T07:24:59;5.90;99.90
1453;DHT22;720;47.738;7.998;2023-12-20T07:27:24;6.00;99.90
1453;DHT22;720;47.738;7.998;2023-12-20T07:29:51;6.00;99.90
1453;DHT22;720;47.738;7.998;2023-12-20T07:32:16;6.00;99.90
1453;DHT22;720;47.738;7.998;2023-12-20T07:34:42;6.00;99.90
1453;DHT22;720;47.738;7.998;2023-12-20T07:37:07;6.00;99.90
1453;DHT22;720;47.738;7.998;2023-12-20T07:39:36;6.00;99.90
1453;DHT22;720;47.738;7.998;2023-12-20T07:42:01;5.90;99.90
1453;DHT22;720;47.738;7.998;2023-12-20T07:44:27;5.90;99.90
1453;DHT22;720;47.738;7.998;2023-12-20T07:46:52;6.00;99.90
1453;DHT22;720;47.738;7.998;2023-12-20T07:49:19;6.00;99.90
1453;DHT22;720;47.738;7.998;2023-12-20T07:51:45;6.00;99.90
1453;DHT22;720;47.738;7.998;2023-12-20T07:54:10;6.10;99.90
1453;DHT22;720;47.738;7.998;2023-12-20T07:56:36;6.10;99.90
1453;DHT22;720;47.738;7.998;2023-12-20T07:59:02;6.10;99.90
1453;DHT22;720;47.738;7.998;2023-12-20T08:01:27;6.10;99.90
1453;DHT22;720;47.738;7.998;2023-12-20T08:03:53;6.30;99.90
1453;DHT22;720;47.738;7.998;2023-12-20T08:06:19;6.50;99.90
1453;DHT22;720;47.738;7.998;2023-12-20T08:08:44;6.70;99.90
1453;DHT22;720;47.738;7.998;2023-12-20T08:11:10;6.80;99.90
1453;DHT22;720;47.738;7.998;2023-12-20T08:13:36;6.90;99.90
1453;DHT22;720;47.738;7.998;2023-12-20T08:16:02;6.90;99.90
1453;DHT22;720;47.738;7.998;2023-12-20T08:18:28;7.00;99.90
1453;DHT22;720;47.738;7.998;2023-12-20T08:20:54;6.90;99.90
1453;DHT22;720;47.738;7.998;2023-12-20T08:23:20;6.80;99.90
1453;DHT22;720;47.738;7.998;2023-12-20T08:25:46;6.70;99.90
1453;DHT22;720;47.738;7.998;2023-12-20T08:28:12;6.70;99.90
1453;DHT22;720;47.738;7.998;2023-12-20T08:30:38;6.70;99.90
1453;DHT22;720;47.738;7.998;2023-12-20T08:33:04;6.50;99.90
1453;DHT22;720;47.738;7.998;2023-12-20T08:35:29;6.40;99.90
1453;DHT22;720;47.738;7.998;2023-12-20T08:37:55;6.30;99.90
1453;DHT22;720;47.738;7.998;2023-12-20T08:40:21;6.30;99.90
1453;DHT22;720;47.738;7.998;2023-12-20T08:42:47;6.30;99.90
1453;DHT22;720;47.738;7.998;2023-12-20T08:45:12;6.30;99.90
1453;DHT22;720;47.738;7.998;2023-12-20T08:47:38;6.40;99.90
1453;DHT22;720;47.738;7.998;2023-12-20T08:50:04;6.30;99.90
1453;DHT22;720;47.738;7.998;2023-12-20T08:52:29;6.30;99.90
1453;DHT22;720;47.738;7.998;2023-12-20T08:54:55;6.30;99.90
1453;DHT22;720;47.738;7.998;2023-12-20T08:57:21;6.30;99.90
1453;DHT22;720;47.738;7.998;2023-12-20T08:59:49;6.20;99.90
1453;DHT22;720;47.738;7.998;2023-12-20T09:02:15;6.20;99.90
1453;DHT22;720;47.738;7.998;2023-12-20T09:04:41;6.20;99.90
1453;DHT22;720;47.738;7.998;2023-12-20T09:07:07;6.20;99.90
1453;DHT22;720;47.738;7.998;2023-12-20T09:09:33;6.20;99.90
1453;DHT22;720;47.738;7.998;2023-12-20T09:11:59;6.20;99.90
1453;DHT22;720;47.738;7.998;2023-12-20T09:14:24;6.20;99.90
1453;DHT22;720;47.738;7.998;2023-12-20T09:16:50;6.20;99.90
1453;DHT22;720;47.738;7.998;2023-12-20T09:19:17;6.00;99.90
1453;DHT22;720;47.738;7.998;2023-12-20T09:21:43;5.80;99.90
1453;DHT22;720;47.738;7.998;2023-12-20T09:24:09;6.00;99.90
1453;DHT22;720;47.738;7.998;2023-12-20T09:26:34;6.10;99.90
1453;DHT22;720;47.738;7.998;2023-12-20T09:29:00;6.30;99.90
1453;DHT22;720;47.738;7.998;2023-12-20T09:31:26;6.40;99.90
1453;DHT22;720;47.738;7.998;2023-12-20T09:33:52;6.40;99.90
1453;DHT22;720;47.738;7.998;2023-12-20T09:36:17;6.40;99.90
1453;DHT22;720;47.738;7.998;2023-12-20T09:38:43;6.40;99.90
1453;DHT22;720;47.738;7.998;2023-12-20T09:41:09;6.40;99.90
1453;DHT22;720;47.738;7.998;2023-12-20T09:43:38;6.50;99.90
1453;DHT22;720;47.738;7.998;2023-12-20T09:46:05;6.40;99.90
1453;DHT22;720;47.738;7.998;2023-12-20T09:48:33;6.40;99.90
1453;DHT22;720;47.738;7.998;2023-12-20T09:50:59;6.50;99.90
1453;DHT22;720;47.738;7.998;2023-12-20T09:53:25;6.40;99.90
1453;DHT22;720;47.738;7.998;2023-12-20T09:55:58;6.20;99.90
1453;DHT22;720;47.738;7.998;2023-12-20T09:58:25;6.20;99.90
1453;DHT22;720;47.738;7.998;2023-12-20T10:00:51;6.20;99.90
1453;DHT22;720;47.738;7.998;2023-12-20T10:03:24;6.30;99.90
1453;DHT22;720;47.738;7.998;2023-12-20T10:05:52;6.40;99.90
1453;DHT22;720;47.738;7.998;2023-12-20T10:08:21;6.40;99.90
1453;DHT22;720;47.738;7.998;2023-12-20T10:10:47;6.40;99.90
1453;DHT22;720;47.738;7.998;2023-12-20T10:13:13;6.30;99.90
1453;DHT22;720;47.738;7.998;2023-12-20T10:15:38;6.30;99.90
1453;DHT22;720;47.738;7.998;2023-12-20T10:18:05;6.40;99.90
1453;DHT22;720;47.738;7.998;2023-12-20T10:20:31;6.30;99.90
1453;DHT22;720;47.738;7.998;2023-12-20T10:22:58;6.40;99.90
1453;DHT22;720;47.738;7.998;2023-12-20T10:25:24;6.40;99.90
1453;DHT22;720;47.738;7.998;2023-12-20T10:28:09;6.30;99.90
1453;DHT22;720;47.738;7.998;2023-12-20T10:30:34;6.20;99.90
1453;DHT22;720;47.738;7.998;2023-12-20T10:33:01;6.20;99.90
1453;DHT22;720;47.738;7.998;2023-12-20T10:35:26;6.20;99.90
1453;DHT22;720;47.738;7.998;2023-12-20T10:37:55;6.20;99.90
1453;DHT22;720;47.738;7.998;2023-12-20T10:40:22;6.20;99.90
1453;DHT22;720;47.738;7.998;2023-12-20T10:42:49;6.40;99.90
1453;DHT22;720;47.738;7.998;2023-12-20T10:45:16;6.40;99.90
1453;DHT22;720;47.738;7.998;2023-12-20T10:47:44;6.30;99.90
1453;DHT22;720;47.738;7.998;2023-12-20T10:50:11;6.40;99.90
1453;DHT22;720;47.738;7.998;2023-12-20T10:52:38;6.50;99.90
1453;DHT22;720;47.738;7.998;2023-12-20T10:55:04;6.70;99.90
1453;DHT22;720;47.738;7.998;2023-12-20T10:57:30;6.90;99.90
1453;DHT22;720;47.738;7.998;2023-12-20T11:00:01;6.70;99.90
1453;DHT22;720;47.738;7.998;2023-12-20T11:02:32;6.70;99.90
1453;DHT22;720;47.738;7.998;2023-12-20T11:13:53;6.50;99.90
1453;DHT22;720;47.738;7.998;2023-12-20T11:16:20;6.60;99.90
1453;DHT22;720;47.738;7.998;2023-12-20T11:18:45;6.80;99.90
1453;DHT22;720;47.738;7.998;2023-12-20T11:21:11;6.80;99.80
1453;DHT22;720;47.738;7.998;2023-12-20T11:23:39;6.60;99.50
1453;DHT22;720;47.738;7.998;2023-12-20T11:26:07;6.50;99.90
1453;DHT22;720;47.738;7.998;2023-12-20T11:28:33;6.60;99.90
1453;DHT22;720;47.738;7.998;2023-12-20T11:31:00;6.60;99.90
1453;DHT22;720;47.738;7.998;2023-12-20T11:33:35;6.70;99.90
1453;DHT22;720;47.738;7.998;2023-12-20T11:36:01;6.70;99.00
1453;DHT22;720;47.738;7.998;2023-12-20T11:38:37;6.80;98.90
1453;DHT22;720;47.738;7.998;2023-12-20T11:41:05;6.80;99.20
1453;DHT22;720;47.738;7.998;2023-12-20T11:43:39;6.90;98.40
1453;DHT22;720;47.738;7.998;2023-12-20T11:46:05;6.80;98.00
1453;DHT22;720;47.738;7.998;2023-12-20T11:48:32;6.90;98.70
1453;DHT22;720;47.738;7.998;2023-12-20T11:50:58;7.00;98.50
1453;DHT22;720;47.738;7.998;2023-12-20T11:53:23;7.20;98.40
1453;DHT22;720;47.738;7.998;2023-12-20T11:55:49;7.20;97.80
1453;DHT22;720;47.738;7.998;2023-12-20T11:58:15;7.10;97.50
1453;DHT22;720;47.738;7.998;2023-12-20T12:00:42;7.00;97.30
1453;DHT22;720;47.738;7.998;2023-12-20T12:03:09;7.00;97.60
1453;DHT22;720;47.738;7.998;2023-12-20T12:05:35;6.90;97.40
1453;DHT22;720;47.738;7.998;2023-12-20T12:08:02;6.90;97.50
1453;DHT22;720;47.738;7.998;2023-12-20T12:10:28;6.90;97.40
1453;DHT22;720;47.738;7.998;2023-12-20T12:12:54;6.60;96.90
1453;DHT22;720;47.738;7.998;2023-12-20T12:15:20;6.50;97.50
1453;DHT22;720;47.738;7.998;2023-12-20T12:17:53;6.40;97.80
1453;DHT22;720;47.738;7.998;2023-12-20T12:20:20;6.10;98.10
1453;DHT22;720;47.738;7.998;2023-12-20T12:22:45;6.00;98.40
1453;DHT22;720;47.738;7.998;2023-12-20T12:25:13;5.80;98.50
1453;DHT22;720;47.738;7.998;2023-12-20T12:27:40;5.80;98.50
1453;DHT22;720;47.738;7.998;2023-12-20T12:30:06;5.70;98.40
1453;DHT22;720;47.738;7.998;2023-12-20T12:32:33;5.70;98.30
1453;DHT22;720;47.738;7.998;2023-12-20T12:34:58;5.70;98.50
1453;DHT22;720;47.738;7.998;2023-12-20T12:37:24;5.60;98.70
1453;DHT22;720;47.738;7.998;2023-12-20T12:39:50;5.70;99.00
1453;DHT22;720;47.738;7.998;2023-12-20T12:42:15;5.70;99.00
1453;DHT22;720;47.738;7.998;2023-12-20T12:44:41;5.40;98.00
1453;DHT22;720;47.738;7.998;2023-12-20T12:47:07;5.40;98.30
1453;DHT22;720;47.738;7.998;2023-12-20T12:49:33;5.40;98.50
1453;DHT22;720;47.738;7.998;2023-12-20T12:51:59;5.40;98.10
1453;DHT22;720;47.738;7.998;2023-12-20T12:54:24;5.40;98.30
1453;DHT22;720;47.738;7.998;2023-12-20T12:56:50;5.40;98.50
1453;DHT22;720;47.738;7.998;2023-12-20T12:59:16;5.30;98.70
1453;DHT22;720;47.738;7.998;2023-12-20T13:01:42;5.20;98.90
1453;DHT22;720;47.738;7.998;2023-12-20T13:04:08;5.30;98.90
1453;DHT22;720;47.738;7.998;2023-12-20T13:06:38;5.40;98.60
1453;DHT22;720;47.738;7.998;2023-12-20T13:09:04;5.40;98.50
1453;DHT22;720;47.738;7.998;2023-12-20T13:11:30;5.30;98.30
1453;DHT22;720;47.738;7.998;2023-12-20T13:13:57;5.10;98.00
1453;DHT22;720;47.738;7.998;2023-12-20T13:16:23;4.80;98.40
1453;DHT22;720;47.738;7.998;2023-12-20T13:18:50;4.80;98.50
1453;DHT22;720;47.738;7.998;2023-12-20T13:21:15;4.80;99.10
1453;DHT22;720;47.738;7.998;2023-12-20T13:23:42;4.80;99.10
1453;DHT22;720;47.738;7.998;2023-12-20T13:26:08;4.60;99.60
1453;DHT22;720;47.738;7.998;2023-12-20T13:28:33;4.70;99.40
1453;DHT22;720;47.738;7.998;2023-12-20T13:30:59;4.70;99.40
1453;DHT22;720;47.738;7.998;2023-12-20T13:33:25;4.80;99.30
1453;DHT22;720;47.738;7.998;2023-12-20T13:35:51;4.80;99.20
1453;DHT22;720;47.738;7.998;2023-12-20T13:38:17;4.80;99.70
1453;DHT22;720;47.738;7.998;2023-12-20T13:40:42;4.80;99.60
1453;DHT22;720;47.738;7.998;2023-12-20T13:43:08;4.80;99.70
1453;DHT22;720;47.738;7.998;2023-12-20T13:45:34;4.80;99.80
1453;DHT22;720;47.738;7.998;2023-12-20T13:48:00;5.00;99.90
1453;DHT22;720;47.738;7.998;2023-12-20T13:50:25;5.00;99.70
1453;DHT22;720;47.738;7.998;2023-12-20T13:52:51;5.20;99.50
1453;DHT22;720;47.738;7.998;2023-12-20T13:55:17;5.00;98.90
1453;DHT22;720;47.738;7.998;2023-12-20T13:57:43;4.80;98.90
1453;DHT22;720;47.738;7.998;2023-12-20T14:00:09;4.90;98.50
1453;DHT22;720;47.738;7.998;2023-12-20T14:02:40;5.00;98.60
1453;DHT22;720;47.738;7.998;2023-12-20T14:05:08;4.90;98.70
1453;DHT22;720;47.738;7.998;2023-12-20T14:07:33;4.80;98.70
1453;DHT22;720;47.738;7.998;2023-12-20T14:09:59;4.80;98.90
1453;DHT22;720;47.738;7.998;2023-12-20T14:12:25;4.90;99.20
1453;DHT22;720;47.738;7.998;2023-12-20T14:14:50;4.90;99.10
1453;DHT22;720;47.738;7.998;2023-12-20T14:17:17;5.00;98.90
1453;DHT22;720;47.738;7.998;2023-12-20T14:19:43;5.10;98.40
1453;DHT22;720;47.738;7.998;2023-12-20T14:22:09;5.10;98.20
1453;DHT22;720;47.738;7.998;2023-12-20T14:24:35;5.00;98.40
1453;DHT22;720;47.738;7.998;2023-12-20T14:27:01;5.00;98.50
1453;DHT22;720;47.738;7.998;2023-12-20T14:29:27;5.00;98.70
1453;DHT22;720;47.738;7.998;2023-12-20T14:31:53;5.00;98.20
1453;DHT22;720;47.738;7.998;2023-12-20T14:34:18;5.00;98.20
1453;DHT22;720;47.738;7.998;2023-12-20T14:36:44;5.00;98.30
1453;DHT22;720;47.738;7.998;2023-12-20T14:39:09;5.00;98.60
1453;DHT22;720;47.738;7.998;2023-12-20T14:41:38;4.90;98.50
1453;DHT22;720;47.738;7.998;2023-12-20T14:44:05;4.80;98.70
1453;DHT22;720;47.738;7.998;2023-12-20T14:46:31;4.90;98.80
1453;DHT22;720;47.738;7.998;2023-12-20T14:48:56;5.00;98.60
1453;DHT22;720;47.738;7.998;2023-12-20T14:51:22;4.90;98.40
1453;DHT22;720;47.738;7.998;2023-12-20T14:53:48;5.00;98.60
1453;DHT22;720;47.738;7.998;2023-12-20T14:56:14;5.00;98.30
1453;DHT22;720;47.738;7.998;2023-12-20T14:58:40;5.00;98.20
1453;DHT22;720;47.738;7.998;2023-12-20T15:01:06;4.90;98.10
1453;DHT22;720;47.738;7.998;2023-12-20T15:03:34;5.00;98.10
1453;DHT22;720;47.738;7.998;2023-12-20T15:06:00;5.00;98.10
1453;DHT22;720;47.738;7.998;2023-12-20T15:08:26;5.00;98.10
1453;DHT22;720;47.738;7.998;2023-12-20T15:10:51;4.90;97.90
1453;DHT22;720;47.738;7.998;2023-12-20T15:13:17;4.90;98.10
1453;DHT22;720;47.738;7.998;2023-12-20T15:15:43;4.80;98.20
1453;DHT22;720;47.738;7.998;2023-12-20T15:18:08;4.70;98.20
1453;DHT22;720;47.738;7.998;2023-12-20T15:20:34;4.80;98.50
1453;DHT22;720;47.738;7.998;2023-12-20T15:23:02;4.80;98.50
1453;DHT22;720;47.738;7.998;2023-12-20T15:25:32;4.80;98.40
1453;DHT22;720;47.738;7.998;2023-12-20T15:27:57;4.50;98.30
1453;DHT22;720;47.738;7.998;2023-12-20T15:30:23;4.50;98.70
1453;DHT22;720;47.738;7.998;2023-12-20T15:32:51;4.50;98.90
1453;DHT22;720;47.738;7.998;2023-12-20T15:35:17;4.50;99.00
1453;DHT22;720;47.738;7.998;2023-12-20T15:37:42;4.40;99.00
1453;DHT22;720;47.738;7.998;2023-12-20T15:40:12;4.40;99.10
1453;DHT22;720;47.738;7.998;2023-12-20T15:42:40;4.40;98.70
1453;DHT22;720;47.738;7.998;2023-12-20T15:45:07;4.50;98.70
1453;DHT22;720;47.738;7.998;2023-12-20T15:47:35;4.40;98.50
1453;DHT22;720;47.738;7.998;2023-12-20T15:50:02;4.30;98.70
1453;DHT22;720;47.738;7.998;2023-12-20T15:52:28;4.40;98.80
1453;DHT22;720;47.738;7.998;2023-12-20T15:54:54;4.30;98.80
1453;DHT22;720;47.738;7.998;2023-12-20T15:57:20;4.30;98.80
1453;DHT22;720;47.738;7.998;2023-12-20T15:59:45;4.20;98.80
1453;DHT22;720;47.738;7.998;2023-12-20T16:02:11;4.30;98.90
1453;DHT22;720;47.738;7.998;2023-12-20T16:04:36;4.30;99.00
1453;DHT22;720;47.738;7.998;2023-12-20T16:07:02;4.30;99.00
1453;DHT22;720;47.738;7.998;2023-12-20T16:09:28;4.20;98.90
1453;DHT22;720;47.738;7.998;2023-12-20T16:11:53;4.10;99.10
1453;DHT22;720;47.738;7.998;2023-12-20T16:14:19;4.30;99.30
1453;DHT22;720;47.738;7.998;2023-12-20T16:16:49;4.40;99.20
1453;DHT22;720;47.738;7.998;2023-12-20T16:19:14;4.40;98.80
1453;DHT22;720;47.738;7.998;2023-12-20T16:21:40;4.30;98.70
1453;DHT22;720;47.738;7.998;2023-12-20T16:24:06;4.20;99.00
1453;DHT22;720;47.738;7.998;2023-12-20T16:26:32;4.30;99.30
1453;DHT22;720;47.738;7.998;2023-12-20T16:28:57;4.10;99.30
1453;DHT22;720;47.738;7.998;2023-12-20T16:31:23;4.00;99.50
1453;DHT22;720;47.738;7.998;2023-12-20T16:33:49;4.10;99.60
1453;DHT22;720;47.738;7.998;2023-12-20T16:36:15;4.20;99.60